createdAt,value
2022-10-09T00:01:20.079Z,81.20
2022-10-09T00:03:49.348Z,81.10
2022-10-09T00:06:22.953Z,81.00
2022-10-09T00:08:49.963Z,81.10
2022-10-09T00:11:26.598Z,81.90
2022-10-09T00:13:54.716Z,81.70
2022-10-09T00:16:26.978Z,81.60
2022-10-09T00:18:54.470Z,81.40
2022-10-09T00:21:22.944Z,81.10
2022-10-09T00:23:51.041Z,80.80
2022-10-09T00:26:20.554Z,80.30
2022-10-09T00:28:48.486Z,79.90
2022-10-09T00:31:16.780Z,79.30
2022-10-09T00:33:43.573Z,79.00
2022-10-09T00:36:15.697Z,79.00
2022-10-09T00:38:43.249Z,79.40
2022-10-09T00:41:14.579Z,80.20
2022-10-09T00:43:50.429Z,81.20
2022-10-09T00:46:24.110Z,81.40
2022-10-09T00:48:59.102Z,81.10
2022-10-09T00:51:30.481Z,80.70
2022-10-09T00:53:57.558Z,80.50
2022-10-09T00:56:25.826Z,80.10
2022-10-09T00:58:56.155Z,79.80
2022-10-09T01:01:23.097Z,80.00
2022-10-09T01:03:49.830Z,80.00
2022-10-09T01:06:34.554Z,80.30
2022-10-09T01:09:09.193Z,80.80
2022-10-09T01:12:02.392Z,80.90
2022-10-09T01:14:37.863Z,80.80
2022-10-09T01:17:24.757Z,80.60
2022-10-09T01:19:56.762Z,80.50
2022-10-09T01:23:10.096Z,81.20
2022-10-09T01:26:12.707Z,81.60
2022-10-09T01:28:42.181Z,82.10
2022-10-09T01:31:10.817Z,82.30
2022-10-09T01:33:43.268Z,82.50
2022-10-09T01:36:11.161Z,82.60
2022-10-09T01:38:40.209Z,82.60
2022-10-09T01:41:08.718Z,83.30
2022-10-09T01:43:35.744Z,83.50
2022-10-09T01:46:19.723Z,83.40
2022-10-09T01:48:59.492Z,83.40
2022-10-09T01:51:32.109Z,83.30
2022-10-09T01:54:02.163Z,83.40
2022-10-09T01:56:31.902Z,83.60
2022-10-09T01:59:02.162Z,83.40
2022-10-09T02:01:35.474Z,83.50
2022-10-09T02:04:07.458Z,83.60
2022-10-09T02:06:40.068Z,83.50
2022-10-09T02:09:12.324Z,83.60
2022-10-09T02:11:44.008Z,83.60
2022-10-09T02:14:10.806Z,83.60
2022-10-09T02:16:46.917Z,83.50
2022-10-09T02:19:31.629Z,83.60
2022-10-09T02:22:05.718Z,83.60
2022-10-09T02:24:33.300Z,83.40
2022-10-09T02:27:02.203Z,83.20
2022-10-09T02:29:29.192Z,83.30
2022-10-09T02:31:56.346Z,83.40
2022-10-09T02:34:23.350Z,83.50
2022-10-09T02:36:50.274Z,83.50
2022-10-09T02:39:17.078Z,83.60
2022-10-09T02:41:43.762Z,83.50
2022-10-09T02:44:10.684Z,83.40
2022-10-09T02:46:41.860Z,83.40
2022-10-09T02:49:08.681Z,83.30
2022-10-09T02:51:37.745Z,83.40
2022-10-09T02:54:07.346Z,83.50
2022-10-09T02:56:38.529Z,83.50
2022-10-09T02:59:05.977Z,83.50
2022-10-09T03:01:32.767Z,83.40
2022-10-09T03:03:59.590Z,83.30
2022-10-09T03:06:27.691Z,83.20
2022-10-09T03:08:56.824Z,83.40
2022-10-09T03:11:25.139Z,83.30
2022-10-09T03:13:54.490Z,83.30
2022-10-09T03:16:24.022Z,83.30
2022-10-09T03:18:52.053Z,83.60
2022-10-09T03:21:28.640Z,83.20
2022-10-09T03:23:55.755Z,83.20
2022-10-09T03:26:27.437Z,83.20
2022-10-09T03:28:54.993Z,83.30
2022-10-09T03:31:51.918Z,83.30
2022-10-09T03:34:14.322Z,83.50
2022-10-09T03:36:43.619Z,83.50
2022-10-09T03:39:10.575Z,83.40
2022-10-09T03:41:37.266Z,83.40
2022-10-09T03:44:04.061Z,83.40
2022-10-09T03:46:30.813Z,83.60
2022-10-09T03:48:57.528Z,83.70
2022-10-09T03:51:24.278Z,83.60
2022-10-09T03:53:51.046Z,83.80
2022-10-09T03:56:18.146Z,83.90
2022-10-09T03:58:44.963Z,84.10
2022-10-09T04:01:11.737Z,84.10
2022-10-09T04:03:38.484Z,84.30
2022-10-09T04:06:05.513Z,84.30
2022-10-09T04:08:32.257Z,84.20
2022-10-09T04:11:00.114Z,84.30
2022-10-09T04:13:27.296Z,84.10
2022-10-09T04:15:56.784Z,84.20
2022-10-09T04:18:24.529Z,84.10
2022-10-09T04:20:55.941Z,84.00
2022-10-09T04:23:26.021Z,84.00
2022-10-09T04:26:00.076Z,84.10
2022-10-09T04:28:28.192Z,84.20
2022-10-09T04:30:55.383Z,84.10
2022-10-09T04:33:22.082Z,84.10
2022-10-09T04:35:51.636Z,84.10
2022-10-09T04:38:19.327Z,84.10
2022-10-09T04:40:56.080Z,84.10
2022-10-09T04:43:26.035Z,84.10
2022-10-09T04:45:53.234Z,84.20
2022-10-09T04:48:25.607Z,84.20
2022-10-09T04:50:52.358Z,84.10
2022-10-09T04:53:19.113Z,84.20
2022-10-09T04:55:46.336Z,84.10
2022-10-09T04:58:15.184Z,84.10
2022-10-09T05:00:43.505Z,84.10
2022-10-09T05:03:11.102Z,84.10
2022-10-09T05:05:38.175Z,84.00
2022-10-09T05:08:07.187Z,84.10
2022-10-09T05:10:34.022Z,84.10
2022-10-09T05:13:00.761Z,84.00
2022-10-09T05:15:27.599Z,83.90
2022-10-09T05:17:54.372Z,83.90
2022-10-09T05:20:21.246Z,83.80
2022-10-09T05:22:48.668Z,83.70
2022-10-09T05:25:18.037Z,83.60
2022-10-09T05:27:44.761Z,83.60
2022-10-09T05:30:11.716Z,83.60
2022-10-09T05:32:41.312Z,83.60
2022-10-09T05:35:08.462Z,83.60
2022-10-09T05:37:35.235Z,83.70
2022-10-09T05:40:09.734Z,83.70
2022-10-09T05:42:38.806Z,83.70
2022-10-09T05:45:11.316Z,83.60
2022-10-09T05:47:38.052Z,83.80
2022-10-09T05:50:05.219Z,83.70
2022-10-09T05:52:31.972Z,83.70
2022-10-09T05:54:58.647Z,83.60
2022-10-09T05:57:26.178Z,83.70
2022-10-09T05:59:52.953Z,83.60
2022-10-09T06:02:22.344Z,83.80
2022-10-09T06:04:51.792Z,83.80
2022-10-09T06:07:18.465Z,83.80
2022-10-09T06:09:45.276Z,84.10
2022-10-09T06:12:11.956Z,84.20
2022-10-09T06:14:38.674Z,84.00
2022-10-09T06:17:07.983Z,83.80
2022-10-09T06:19:37.052Z,83.60
2022-10-09T06:22:06.084Z,83.40
2022-10-09T06:24:35.140Z,83.10
2022-10-09T06:27:01.998Z,83.00
2022-10-09T06:29:30.046Z,82.70
2022-10-09T06:31:57.183Z,82.40
2022-10-09T06:34:24.142Z,82.30
2022-10-09T06:36:51.678Z,82.10
2022-10-09T06:39:20.803Z,81.80
2022-10-09T06:41:47.646Z,81.80
2022-10-09T06:44:37.229Z,81.60
2022-10-09T06:47:06.104Z,81.40
2022-10-09T06:49:33.532Z,81.20
2022-10-09T06:52:00.436Z,80.90
2022-10-09T06:54:27.205Z,80.70
2022-10-09T06:56:55.461Z,80.40
2022-10-09T06:59:22.272Z,80.30
2022-10-09T07:01:49.062Z,80.20
2022-10-09T07:04:17.692Z,80.10
2022-10-09T07:06:47.532Z,80.10
2022-10-09T07:09:16.049Z,79.90
2022-10-09T07:11:45.747Z,79.90
2022-10-09T07:14:20.737Z,79.30
2022-10-09T07:16:48.843Z,79.50
2022-10-09T07:19:17.560Z,79.40
2022-10-09T07:21:49.182Z,79.50
2022-10-09T07:24:20.467Z,79.40
2022-10-09T07:26:50.609Z,78.70
2022-10-09T07:29:19.845Z,78.60
2022-10-09T07:31:47.225Z,78.50
2022-10-09T07:34:14.342Z,78.50
2022-10-09T07:36:41.049Z,78.20
2022-10-09T07:39:08.345Z,77.90
2022-10-09T07:41:35.347Z,77.70
2022-10-09T07:44:02.042Z,77.40
2022-10-09T07:46:33.247Z,77.50
2022-10-09T07:49:00.913Z,76.80
2022-10-09T07:51:29.181Z,76.50
2022-10-09T07:53:57.169Z,76.20
2022-10-09T07:56:29.515Z,75.80
2022-10-09T07:59:05.809Z,75.70
2022-10-09T08:01:33.841Z,75.40
2022-10-09T08:04:01.657Z,75.10
2022-10-09T08:06:28.909Z,74.70
2022-10-09T08:09:01.889Z,74.20
2022-10-09T08:11:29.734Z,73.70
2022-10-09T08:13:56.771Z,73.20
2022-10-09T08:16:25.367Z,73.00
2022-10-09T08:18:59.887Z,72.50
2022-10-09T08:21:28.403Z,72.00
2022-10-09T08:23:57.410Z,71.70
2022-10-09T08:26:26.269Z,71.80
2022-10-09T08:29:00.578Z,72.10
2022-10-09T08:31:31.606Z,71.40
2022-10-09T08:34:01.897Z,71.20
2022-10-09T08:36:29.945Z,71.30
2022-10-09T08:38:56.678Z,70.50
2022-10-09T08:41:48.292Z,70.60
2022-10-09T08:44:25.998Z,69.40
2022-10-09T08:47:17.676Z,69.00
2022-10-09T08:49:49.256Z,68.80
2022-10-09T08:52:37.055Z,68.60
2022-10-09T08:55:22.796Z,67.60
2022-10-09T08:58:00.869Z,69.30
2022-10-09T09:00:36.171Z,67.30
2022-10-09T09:03:21.628Z,65.90
2022-10-09T09:06:09.739Z,63.90
2022-10-09T09:08:53.946Z,63.30
2022-10-09T09:12:03.781Z,62.90
2022-10-09T09:14:51.114Z,63.00
2022-10-09T09:17:53.996Z,62.60
2022-10-09T09:20:50.324Z,63.20
2022-10-09T09:23:18.095Z,62.70
2022-10-09T09:25:46.140Z,61.40
2022-10-09T09:28:22.785Z,60.70
2022-10-09T09:31:06.110Z,60.60
2022-10-09T09:33:44.999Z,60.60
2022-10-09T09:36:23.667Z,60.00
2022-10-09T09:39:36.246Z,60.60
2022-10-09T09:41:42.036Z,59.70
2022-10-09T09:44:14.283Z,58.40
2022-10-09T09:46:43.509Z,58.20
2022-10-09T09:49:23.812Z,57.40
2022-10-09T09:51:51.345Z,56.10
2022-10-09T09:54:18.409Z,55.60
2022-10-09T09:59:41.842Z,56.00
2022-10-09T10:02:27.791Z,56.20
2022-10-09T10:05:21.971Z,56.50
2022-10-09T10:07:52.593Z,56.80
2022-10-09T10:10:26.632Z,56.80
2022-10-09T10:12:57.898Z,56.30
2022-10-09T10:15:33.884Z,55.90
2022-10-09T10:18:16.658Z,55.90
2022-10-09T10:20:49.584Z,55.10
2022-10-09T10:23:31.379Z,55.00
2022-10-09T10:26:00.395Z,55.10
2022-10-09T10:28:38.457Z,54.80
2022-10-09T10:31:13.139Z,54.70
2022-10-09T10:33:41.956Z,54.30
2022-10-09T10:36:10.978Z,53.90
2022-10-09T10:38:48.719Z,53.50
2022-10-09T10:41:27.893Z,53.40
2022-10-09T10:44:02.273Z,52.40
2022-10-09T10:46:37.288Z,52.20
2022-10-09T10:49:05.044Z,52.70
2022-10-09T10:51:46.919Z,52.70
2022-10-09T10:54:23.853Z,50.70
2022-10-09T10:57:09.062Z,51.00
2022-10-09T10:59:54.223Z,50.00
2022-10-09T11:02:42.338Z,48.40
2022-10-09T11:05:12.191Z,46.50
2022-10-09T11:08:05.581Z,44.50
2022-10-09T11:10:50.885Z,45.00
2022-10-09T11:14:03.273Z,43.00
2022-10-09T11:16:43.551Z,42.80
2022-10-09T11:19:25.358Z,41.20
2022-10-09T11:22:25.377Z,40.80
2022-10-09T11:25:03.155Z,39.60
2022-10-09T11:27:54.726Z,39.60
2022-10-09T11:30:22.490Z,39.10
2022-10-09T11:32:59.778Z,39.40
2022-10-09T11:35:58.509Z,40.20
2022-10-09T11:38:45.956Z,38.60
2022-10-09T11:41:13.211Z,38.40
2022-10-09T11:44:01.726Z,38.20
2022-10-09T11:47:09.910Z,37.70
2022-10-09T11:49:59.885Z,38.70
2022-10-09T11:52:51.426Z,38.70
2022-10-09T11:55:19.625Z,38.40
2022-10-09T11:57:46.939Z,38.10
2022-10-09T12:00:17.109Z,37.50
2022-10-09T12:02:44.302Z,37.70
2022-10-09T12:05:44.865Z,38.50
2022-10-09T12:08:19.550Z,39.30
2022-10-09T12:11:12.356Z,39.30
2022-10-09T12:13:39.173Z,39.90
2022-10-09T12:16:08.702Z,40.60
2022-10-09T12:18:46.839Z,41.10
2022-10-09T12:21:27.932Z,42.10
2022-10-09T12:23:55.103Z,42.40
2022-10-09T12:26:25.762Z,42.90
2022-10-09T12:28:57.549Z,42.90
2022-10-09T12:31:38.441Z,43.90
2022-10-09T12:34:13.295Z,42.50
2022-10-09T12:36:40.041Z,42.70
2022-10-09T12:39:14.471Z,42.90
2022-10-09T12:41:44.810Z,42.70
2022-10-09T12:44:36.333Z,42.50
2022-10-09T12:47:07.000Z,42.90
2022-10-09T12:49:34.835Z,43.30
2022-10-09T12:52:02.224Z,43.40
2022-10-09T12:54:31.356Z,43.40
2022-10-09T12:56:59.776Z,43.00
2022-10-09T12:59:28.582Z,42.80
2022-10-09T13:01:58.823Z,43.00
2022-10-09T13:04:33.663Z,42.40
2022-10-09T13:07:06.572Z,42.10
2022-10-09T13:09:37.121Z,41.20
2022-10-09T13:12:09.732Z,41.70
2022-10-09T13:14:47.993Z,42.00
2022-10-09T13:17:29.565Z,42.00
2022-10-09T13:20:18.113Z,42.10
2022-10-09T13:23:00.031Z,41.90
2022-10-09T13:25:38.555Z,41.10
2022-10-09T13:28:05.390Z,42.20
2022-10-09T13:30:32.833Z,41.10
2022-10-09T13:32:59.686Z,41.10
2022-10-09T13:35:26.623Z,41.30
2022-10-09T13:37:53.638Z,41.20
2022-10-09T13:40:22.731Z,42.30
2022-10-09T13:42:56.131Z,42.30
2022-10-09T13:45:23.484Z,41.00
2022-10-09T13:47:50.310Z,40.50
2022-10-09T13:50:18.040Z,40.50
2022-10-09T13:52:44.761Z,40.00
2022-10-09T13:55:11.913Z,40.30
2022-10-09T13:57:38.796Z,39.90
2022-10-09T14:00:09.614Z,41.00
2022-10-09T14:02:39.299Z,41.10
2022-10-09T14:05:06.372Z,41.10
2022-10-09T14:07:33.083Z,41.30
2022-10-09T14:10:01.949Z,41.60
2022-10-09T14:12:28.635Z,40.60
2022-10-09T14:14:55.709Z,40.00
2022-10-09T14:17:22.491Z,40.20
2022-10-09T14:19:49.192Z,40.50
2022-10-09T14:22:18.261Z,40.40
2022-10-09T14:24:45.021Z,40.90
2022-10-09T14:27:11.760Z,40.50
2022-10-09T14:29:38.636Z,41.20
2022-10-09T14:32:05.926Z,41.60
2022-10-09T14:34:32.860Z,41.70
2022-10-09T14:36:59.592Z,40.50
2022-10-09T14:39:26.343Z,40.00
2022-10-09T14:41:53.151Z,41.30
2022-10-09T14:44:19.870Z,40.70
2022-10-09T14:46:46.566Z,40.50
2022-10-09T14:49:13.376Z,40.90
2022-10-09T14:51:41.396Z,40.40
2022-10-09T14:54:10.705Z,41.50
2022-10-09T14:56:37.452Z,41.70
2022-10-09T14:59:05.984Z,40.80
2022-10-09T15:01:34.050Z,41.70
2022-10-09T15:04:01.711Z,41.50
2022-10-09T15:06:28.765Z,41.20
2022-10-09T15:09:03.049Z,42.00
2022-10-09T15:11:32.516Z,41.70
2022-10-09T15:13:59.358Z,42.20
2022-10-09T15:16:28.886Z,41.80
2022-10-09T15:18:56.270Z,41.30
2022-10-09T15:21:29.238Z,41.40
2022-10-09T15:23:57.901Z,41.40
2022-10-09T15:26:26.421Z,41.30
2022-10-09T15:28:53.230Z,41.90
2022-10-09T15:31:32.100Z,42.50
2022-10-09T15:34:02.622Z,42.40
2022-10-09T15:36:33.380Z,42.90
2022-10-09T15:39:05.391Z,43.30
2022-10-09T15:41:34.552Z,43.30
2022-10-09T15:44:04.276Z,43.60
2022-10-09T15:46:31.521Z,43.20
2022-10-09T15:48:58.335Z,42.60
2022-10-09T15:51:25.487Z,42.50
2022-10-09T15:53:53.107Z,42.70
2022-10-09T15:56:22.956Z,42.60
2022-10-09T15:58:50.547Z,42.70
2022-10-09T16:01:17.992Z,42.50
2022-10-09T16:03:45.670Z,43.40
2022-10-09T16:06:15.773Z,43.20
2022-10-09T16:08:43.200Z,43.70
2022-10-09T16:11:12.168Z,44.00
2022-10-09T16:13:40.986Z,44.40
2022-10-09T16:16:12.029Z,44.50
2022-10-09T16:18:38.831Z,44.90
2022-10-09T16:21:14.798Z,45.20
2022-10-09T16:23:42.979Z,45.70
2022-10-09T16:26:11.086Z,46.10
2022-10-09T16:28:38.183Z,46.40
2022-10-09T16:31:07.088Z,47.00
2022-10-09T16:33:34.030Z,47.80
2022-10-09T16:36:12.044Z,48.70
2022-10-09T16:38:40.488Z,49.30
2022-10-09T16:41:13.143Z,49.50
2022-10-09T16:43:48.825Z,49.90
2022-10-09T16:46:20.732Z,51.20
2022-10-09T16:48:52.382Z,51.80
2022-10-09T16:51:31.194Z,52.70
2022-10-09T16:54:02.770Z,53.80
2022-10-09T16:56:35.347Z,54.40
2022-10-09T16:59:05.731Z,55.40
2022-10-09T17:01:35.306Z,56.00
2022-10-09T17:04:02.153Z,56.80
2022-10-09T17:06:28.925Z,57.20
2022-10-09T17:08:58.019Z,57.70
2022-10-09T17:11:29.604Z,58.20
2022-10-09T17:13:57.171Z,58.90
2022-10-09T17:16:27.362Z,60.10
2022-10-09T17:18:54.930Z,60.20
2022-10-09T17:21:22.271Z,60.60
2022-10-09T17:23:56.981Z,60.50
2022-10-09T17:26:25.920Z,60.90
2022-10-09T17:28:53.664Z,61.30
2022-10-09T17:31:23.372Z,62.00
2022-10-09T17:33:55.170Z,62.60
2022-10-09T17:36:24.149Z,63.10
2022-10-09T17:38:53.724Z,63.10
2022-10-09T17:41:23.527Z,63.80
2022-10-09T17:43:53.790Z,63.70
2022-10-09T17:46:22.316Z,64.10
2022-10-09T17:48:56.723Z,64.20
2022-10-09T17:51:39.557Z,64.60
2022-10-09T17:54:12.023Z,64.00
2022-10-09T17:56:39.853Z,64.00
2022-10-09T17:59:07.212Z,64.60
2022-10-09T18:01:34.330Z,65.00
2022-10-09T18:04:01.096Z,65.60
2022-10-09T18:06:33.834Z,65.60
2022-10-09T18:09:00.833Z,65.60
2022-10-09T18:11:30.719Z,66.00
2022-10-09T18:13:58.041Z,66.00
2022-10-09T18:16:35.441Z,66.20
2022-10-09T18:19:07.577Z,66.50
2022-10-09T18:21:35.172Z,66.40
2022-10-09T18:24:04.422Z,66.40
2022-10-09T18:26:31.493Z,66.70
2022-10-09T18:28:59.713Z,67.00
2022-10-09T18:31:28.677Z,67.10
2022-10-09T18:33:56.432Z,67.50
2022-10-09T18:36:25.951Z,67.80
2022-10-09T18:38:59.213Z,68.30
2022-10-09T18:41:25.896Z,68.60
2022-10-09T18:43:59.744Z,68.50
2022-10-09T18:46:28.926Z,68.70
2022-10-09T18:48:56.677Z,68.90
2022-10-09T18:51:26.908Z,69.10
2022-10-09T18:53:57.976Z,68.90
2022-10-09T18:56:24.977Z,68.60
2022-10-09T18:58:53.351Z,68.60
2022-10-09T19:01:20.290Z,68.60
2022-10-09T19:03:50.059Z,68.70
2022-10-09T19:06:18.721Z,69.10
2022-10-09T19:08:46.450Z,69.30
2022-10-09T19:11:14.365Z,69.40
2022-10-09T19:13:46.681Z,70.10
2022-10-09T19:16:13.422Z,70.50
2022-10-09T19:18:40.175Z,70.50
2022-10-09T19:21:07.161Z,71.10
2022-10-09T19:23:34.174Z,71.30
2022-10-09T19:26:00.912Z,71.60
2022-10-09T19:28:37.032Z,71.70
2022-10-09T19:31:09.473Z,72.00
2022-10-09T19:33:37.959Z,72.00
2022-10-09T19:36:05.971Z,72.10
2022-10-09T19:38:36.551Z,71.80
2022-10-09T19:41:10.632Z,71.80
2022-10-09T19:43:39.968Z,73.10
2022-10-09T19:46:17.115Z,73.70
2022-10-09T19:48:44.584Z,73.70
2022-10-09T19:51:15.192Z,73.90
2022-10-09T19:53:44.925Z,73.80
2022-10-09T19:56:16.960Z,73.60
2022-10-09T19:58:48.359Z,73.60
2022-10-09T20:01:17.584Z,73.50
2022-10-09T20:03:44.987Z,73.70
2022-10-09T20:06:12.131Z,73.60
2022-10-09T20:08:42.895Z,73.40
2022-10-09T20:11:11.403Z,74.00
2022-10-09T20:13:39.633Z,74.80
2022-10-09T20:16:11.866Z,75.50
2022-10-09T20:18:42.277Z,75.50
2022-10-09T20:21:14.080Z,76.10
2022-10-09T20:23:44.213Z,76.50
2022-10-09T20:26:19.491Z,76.70
2022-10-09T20:28:47.532Z,76.90
2022-10-09T20:31:20.576Z,76.80
2022-10-09T20:33:48.713Z,76.70
2022-10-09T20:36:32.398Z,76.60
2022-10-09T20:39:01.236Z,76.20
2022-10-09T20:41:31.602Z,75.90
2022-10-09T20:44:00.799Z,75.60
2022-10-09T20:46:30.176Z,75.30
2022-10-09T20:48:57.012Z,75.10
2022-10-09T20:51:26.170Z,74.80
2022-10-09T20:53:55.912Z,74.70
2022-10-09T20:56:24.738Z,74.40
2022-10-09T20:58:52.218Z,74.10
2022-10-09T21:01:19.218Z,73.80
2022-10-09T21:03:51.267Z,73.40
2022-10-09T21:06:20.760Z,73.20
2022-10-09T21:08:47.616Z,73.10
2022-10-09T21:11:18.150Z,73.20
2022-10-09T21:13:48.178Z,73.30
2022-10-09T21:16:20.947Z,73.50
2022-10-09T21:18:53.966Z,74.00
2022-10-09T21:21:22.915Z,74.30
2022-10-09T21:23:54.916Z,74.70
2022-10-09T21:26:23.190Z,74.40
2022-10-09T21:28:50.150Z,74.20
2022-10-09T21:31:20.493Z,73.90
2022-10-09T21:33:47.570Z,74.40
2022-10-09T21:36:37.505Z,74.30
2022-10-09T21:39:07.748Z,74.00
2022-10-09T21:41:38.052Z,73.80
2022-10-09T21:44:06.431Z,74.00
2022-10-09T21:46:37.053Z,74.00
2022-10-09T21:49:07.527Z,73.70
2022-10-09T21:51:35.782Z,73.50
2022-10-09T21:54:04.936Z,73.20
2022-10-09T21:56:31.675Z,72.90
2022-10-09T21:58:58.406Z,72.50
2022-10-09T22:01:25.140Z,72.50
2022-10-09T22:03:52.367Z,72.50
2022-10-09T22:06:19.658Z,72.40
2022-10-09T22:08:48.893Z,72.40
2022-10-09T22:11:17.855Z,72.40
2022-10-09T22:13:44.921Z,72.30
2022-10-09T22:16:13.852Z,72.40
2022-10-09T22:18:40.805Z,72.60
2022-10-09T22:21:12.771Z,72.50
2022-10-09T22:23:39.872Z,72.60
2022-10-09T22:26:10.451Z,72.60
2022-10-09T22:28:39.448Z,72.50
2022-10-09T22:31:20.520Z,72.40
2022-10-09T22:34:05.235Z,72.50
2022-10-09T22:36:33.403Z,72.60
2022-10-09T22:39:03.525Z,72.50
2022-10-09T22:41:34.255Z,72.70
2022-10-09T22:44:02.202Z,72.90
2022-10-09T22:46:41.074Z,73.10
2022-10-09T22:49:13.521Z,73.30
2022-10-09T22:51:43.106Z,73.50
2022-10-09T22:54:11.983Z,73.60
2022-10-09T22:56:41.437Z,73.90
2022-10-09T22:59:09.476Z,74.00
2022-10-09T23:01:40.009Z,74.40
2022-10-09T23:04:10.501Z,74.60
2022-10-09T23:06:37.372Z,74.40
2022-10-09T23:09:06.558Z,74.60
2022-10-09T23:11:33.888Z,74.70
2022-10-09T23:14:01.180Z,74.70
2022-10-09T23:16:30.357Z,75.10
2022-10-09T23:18:58.298Z,75.50
2022-10-09T23:21:26.178Z,76.20
2022-10-09T23:23:54.229Z,77.40
2022-10-09T23:26:24.099Z,77.70
2022-10-09T23:28:56.735Z,77.90
2022-10-09T23:31:28.323Z,78.00
2022-10-09T23:33:56.393Z,78.20
2022-10-09T23:36:25.711Z,78.60
2022-10-09T23:38:55.523Z,78.60
2022-10-09T23:41:24.585Z,78.40
2022-10-09T23:43:51.573Z,78.10
2022-10-09T23:46:22.079Z,78.00
2022-10-09T23:48:50.679Z,77.80
2022-10-09T23:51:19.376Z,77.80
2022-10-09T23:53:46.464Z,78.20
2022-10-09T23:56:23.630Z,78.60
2022-10-09T23:58:51.340Z,79.10
